This demonstration page uses our WeatherBlox Daily Observations layout. Learn more.

41.86663, -103.66717

Hourly Observations for December 18, 2019

Temp ( °F °C ) Dew Point ( °F °C ) Humidity (%) Winds ( mph kmh ) Pressure ( in mb ) Visibility ( mi km ) Precip ( " mm )
12:53 am 00:53 Clear 23 -5 14 -10 68 68 NNW 5 7 30.22 1023 10 16.0934 0 0
1:53 am 01:53 Clear 24 -4.4 13 -10.6 62 62 NW 5 7 30.22 1023 10 16.0934 0 0
2:53 am 02:53 Clear 24 -4.4 13 -10.6 62 62 NW 7 11 30.2 1023 10 16.0934 0 0
3:53 am 03:53 Clear 22 -5.6 12 -11.1 66 66 NNW 7 11 30.19 1023 10 16.0934 0 0
4:53 am 04:53 Clear 18 -7.8 11 -11.7 74 74 NNW 8 13 30.22 1023 10 16.0934 0 0
5:53 am 05:53 Clear 25 -3.9 12 -11.1 58 58 WNW 9 15 30.2 1023 10 16.0934 0 0
6:53 am 06:53 Clear 32 0 13 -10.6 45 45 W 16 26 30.19 1022 10 16.0934 0 0
7:53 am 07:53 Sunny 31 -0.6 14 -10 49 49 W 12 19 30.2 1023 10 16.0934 0 0
8:53 am 08:53 Sunny 34 1.1 15 -9.4 46 46 WNW 13 20 30.2 1023 10 16.0934 0 0
9:53 am 09:53 Sunny 39 3.9 18 -7.8 43 43 WNW 13 20 30.19 1022 10 16.0934 0 0
10:53 am 10:53 Sunny 42 5.6 19 -7.2 40 40 WNW 13 20 30.16 1021 10 16.0934 0 0
11:53 am 11:53 Sunny 44 6.7 20 -6.7 38 38 W 15 24 30.13 1020 10 16.0934 0 0
12:53 pm 12:53 Sunny 46 7.8 21 -6.1 37 37 W 10 17 30.11 1020 10 16.0934 0 0
1:53 pm 13:53 Sunny 47 8.3 21 -6.1 36 36 W 13 20 30.1 1019 10 16.0934 0 0
2:53 pm 14:53 Sunny 48 8.9 20 -6.7 33 33 W 17 28 30.09 1019 10 16.0934 0 0
3:53 pm 15:53 Sunny 45 7.2 20 -6.7 37 37 W 7 11 30.12 1020 10 16.0934 0 0
4:53 pm 16:53 Clear 33 0.6 20 -6.7 58 58 N 6 9 30.17 1022 10 16.0934 0 0
5:53 pm 17:53 Clear 34 1.1 18 -7.8 52 52 W 9 15 30.14 1021 10 16.0934 0 0
6:53 pm 18:53 Clear 31 -0.6 17 -8.3 56 56 Calm 30.14 1021 10 16.0934 0 0
7:53 pm 19:53 Clear 27 -2.8 18 -7.8 69 69 ESE 3 6 30.14 1021 10 16.0934 0 0
8:53 pm 20:53 Clear 23 -5 17 -8.3 78 78 NNE 5 7 30.12 1020 10 16.0934 0 0
9:53 pm 21:53 Clear 21 -6.1 15 -9.4 78 78 E 6 9 30.1 1019 10 16.0934 0 0
10:53 pm 22:53 Clear 22 -5.6 16 -8.9 78 78 Calm 30.09 1019 10 16.0934 0 0
11:53 pm 23:53 Clear 23 -5 16 -8.9 74 74 NE 6 9 30.04 1017 10 16.0934 0 0

Powered by AerisWeather